Time;durP1;ratioP1;P1;durP2;ratioP2;P2;SDS_P1;SDS_P2;PMS_P1;PMS_P2;Temp;Humidity;BMP_temperature;BMP_pressure;BME280_temperature;BME280_humidity;BME280_pressure;Samples;Min_cycle;Max_cycle;Signal;HPM_P1;HPM_P2
2022/01/21 00:01:52;;;;;;;1.10;1.00;;;-2.00;99.90;-2.40;101188.00;;;;4995072;27;92671;-68
2022/01/21 00:04:17;;;;;;;6.77;1.33;;;-2.00;99.90;-2.40;101186.00;;;;4992358;28;96397;-69
2022/01/21 00:06:43;;;;;;;0.60;0.60;;;-2.00;99.90;-2.40;101194.00;;;;4995163;27;94013;-68
2022/01/21 00:09:09;;;;;;;1.00;0.70;;;-1.90;99.90;-2.30;101201.00;;;;4992998;27;110619;-68
2022/01/21 00:11:38;;;;;;;4.20;1.10;;;-2.00;99.90;-2.20;101203.00;;;;4994078;27;93020;-69
2022/01/21 00:14:06;;;;;;;0.53;0.53;;;-1.90;99.90;-2.10;101212.00;;;;4975792;28;92986;-70
2022/01/21 00:16:32;;;;;;;9.03;0.97;;;-1.80;99.90;-2.00;101190.00;;;;4976770;27;94891;-69
2022/01/21 00:19:06;;;;;;;0.90;0.73;;;-1.70;99.90;-1.90;101194.00;;;;5015324;27;93076;-69
2022/01/21 00:32:33;;;;;;;3.70;0.60;;;-1.70;99.90;-2.10;101206.00;;;;4980415;28;93084;-67
2022/01/21 00:34:59;;;;;;;5.50;1.20;;;-0.80;99.90;-2.20;101208.00;;;;4992655;28;122816;-69
2022/01/21 00:37:25;;;;;;;1.53;0.77;;;-1.80;99.90;-2.20;101210.00;;;;4993395;28;93587;-69
2022/01/21 00:39:55;;;;;;;2.60;0.93;;;-1.80;99.90;-2.20;101214.00;;;;4993990;27;92923;-70
2022/01/21 00:44:51;;;;;;;1.23;1.10;;;-1.80;99.90;-2.10;101216.00;;;;4990444;28;93353;-68
2022/01/21 00:47:18;;;;;;;2.40;1.03;;;-1.80;99.90;-2.00;101228.00;;;;5002006;27;93800;-69
2022/01/21 00:49:43;;;;;;;0.97;0.70;;;-1.60;99.90;-1.90;101230.00;;;;4977941;27;92989;-68
2022/01/21 00:52:09;;;;;;;2.90;0.90;;;-1.50;99.90;-1.80;101227.00;;;;5013453;27;97114;-68
2022/01/21 00:54:37;;;;;;;1.50;0.80;;;-1.50;99.90;-1.80;101226.00;;;;5012554;27;95942;-68
2022/01/21 00:57:03;;;;;;;2.27;0.60;;;-1.40;99.90;-1.90;101216.00;;;;5013355;27;94563;-68
2022/01/21 00:59:29;;;;;;;1.07;0.93;;;-1.50;99.90;-1.90;101218.00;;;;5001417;27;96078;-69
2022/01/21 01:01:55;;;;;;;1.60;0.80;;;-1.50;99.90;-2.00;101222.00;;;;4993746;27;109844;-68
2022/01/21 01:04:21;;;;;;;2.43;0.73;;;-1.60;99.90;-2.10;101226.00;;;;4973653;28;108817;-68
2022/01/21 01:06:46;;;;;;;1.10;0.70;;;-1.60;99.90;-2.10;101238.00;;;;4996112;27;93855;-69
2022/01/21 01:09:13;;;;;;;0.87;0.87;;;-1.60;99.90;-2.20;101226.00;;;;5011464;27;110720;-68
2022/01/21 01:19:57;;;;;;;1.90;1.50;;;-1.60;99.90;-2.40;101249.00;;;;4994839;27;93887;-68
2022/01/21 01:22:45;;;;;;;3.97;1.07;;;-1.90;99.90;-2.30;101244.00;;;;5011965;27;92967;-68
2022/01/21 01:27:55;;;;;;;4.10;0.90;;;-1.90;99.90;-2.30;101257.00;;;;5010816;27;92959;-68
2022/01/21 01:30:25;;;;;;;0.67;0.67;;;-1.40;99.90;-2.30;101250.00;;;;5012392;27;92912;-68
2022/01/21 01:32:56;;;;;;;2.80;0.80;;;-1.90;99.90;-2.20;101248.00;;;;5013286;27;92901;-69
2022/01/21 01:35:23;;;;;;;1.00;0.57;;;-1.80;99.90;-2.20;101265.00;;;;5010320;27;95196;-68
2022/01/21 01:40:46;;;;;;;1.07;1.03;;;-1.80;99.90;-2.00;101259.00;;;;5011233;27;92941;-68
2022/01/21 01:51:13;;;;;;;1.10;0.63;;;-1.40;99.90;-1.60;101262.00;;;;5011040;27;92823;-68
2022/01/21 01:54:01;;;;;;;0.93;0.83;;;-0.70;99.90;-1.60;101237.00;;;;5013014;27;92876;-69
2022/01/21 01:56:32;;;;;;;0.80;0.57;;;-1.30;99.90;-1.50;101245.00;;;;4992712;27;93003;-68
2022/01/21 01:58:58;;;;;;;11.33;1.30;;;-1.20;99.90;-1.50;101266.00;;;;4993324;27;103410;-68
2022/01/21 02:01:24;;;;;;;0.63;0.50;;;-1.20;99.90;-1.40;101263.00;;;;4991859;27;109525;-68
2022/01/21 02:03:49;;;;;;;1.37;0.53;;;-1.10;99.90;-1.40;101255.00;;;;4991711;28;108690;-68
2022/01/21 02:06:15;;;;;;;1.70;0.87;;;-1.10;99.90;-1.40;101257.00;;;;4992383;27;125124;-69
2022/01/21 02:08:41;;;;;;;1.07;0.60;;;-1.10;99.90;-1.30;101264.00;;;;4990420;27;123295;-68
2022/01/21 02:11:07;;;;;;;2.03;1.07;;;-1.10;99.90;-1.30;101247.00;;;;4992605;28;93842;-69
2022/01/21 02:13:39;;;;;;;1.27;0.60;;;-0.90;99.90;-1.30;101250.00;;;;4992352;27;92591;-68
2022/01/21 02:21:40;;;;;;;2.37;0.80;;;-0.90;99.90;-1.30;101263.00;;;;4988684;28;92819;-68
2022/01/21 02:24:13;;;;;;;4.63;1.30;;;-0.90;99.90;-1.40;101248.00;;;;4992584;28;93646;-68
2022/01/21 02:26:40;;;;;;;2.73;0.90;;;-0.30;99.90;-1.40;101244.00;;;;4973010;28;93149;-67
2022/01/21 02:29:07;;;;;;;3.03;1.47;;;-1.10;99.90;-1.50;101245.00;;;;4992289;28;93785;-68
2022/01/21 02:31:35;;;;;;;4.60;0.90;;;-1.10;99.90;-1.60;101258.00;;;;4992653;28;92899;-70
2022/01/21 02:34:01;;;;;;;2.57;1.13;;;-1.20;99.90;-1.60;101256.00;;;;4991603;28;97638;-68
2022/01/21 02:36:28;;;;;;;1.53;0.97;;;-1.10;99.90;-1.70;101258.00;;;;4990965;28;94270;-67
2022/01/21 02:38:54;;;;;;;1.90;0.70;;;-1.30;99.90;-1.70;101262.00;;;;4991131;28;105114;-69
2022/01/21 02:41:20;;;;;;;0.77;0.43;;;-1.40;99.90;-1.80;101270.00;;;;4973537;28;92966;-70
2022/01/21 02:43:45;;;;;;;5.57;0.83;;;-1.10;99.90;-1.80;101274.00;;;;4991941;28;92860;-68
2022/01/21 02:46:11;;;;;;;2.03;0.97;;;-1.40;99.90;-1.90;101262.00;;;;4969656;28;94693;-70
2022/01/21 02:48:38;;;;;;;4.37;1.13;;;-1.50;99.90;-1.90;101281.00;;;;4952806;28;95210;-69
2022/01/21 02:51:11;;;;;;;3.17;1.20;;;-1.50;99.90;-2.00;101270.00;;;;4971120;28;92847;-69
2022/01/21 02:54:03;;;;;;;0.93;0.50;;;-1.60;99.90;-2.00;101284.00;;;;4953517;28;92216;-68
2022/01/21 02:56:25;;;;;;;1.00;0.80;;;-1.60;99.90;-2.10;101272.00;;;;4971303;28;92914;-68
2022/01/21 02:58:51;;;;;;;0.83;0.77;;;-1.70;99.90;-2.10;101268.00;;;;4969922;28;122675;-68
2022/01/21 03:01:18;;;;;;;1.23;0.67;;;-1.60;99.90;-2.10;101276.00;;;;4969113;28;94569;-70
2022/01/21 03:03:46;;;;;;;0.93;0.63;;;-1.70;99.90;-2.10;101288.00;;;;4972419;28;92938;-68
2022/01/21 03:06:17;;;;;;;2.57;0.93;;;-1.70;99.90;-2.10;101271.00;;;;4971932;28;93224;-68
2022/01/21 03:08:48;;;;;;;1.50;0.83;;;-1.70;99.90;-2.10;101278.00;;;;4982857;28;93279;-68
2022/01/21 03:11:14;;;;;;;1.37;0.80;;;-1.80;99.90;-2.10;101279.00;;;;4973456;28;92946;-68
2022/01/21 03:13:41;;;;;;;0.60;0.40;;;-1.70;99.90;-2.20;101275.00;;;;4977034;28;93124;-68
2022/01/21 03:16:07;;;;;;;2.10;1.07;;;-1.20;99.90;-2.20;101276.00;;;;5007624;27;109601;-69
2022/01/21 03:18:33;;;;;;;3.63;0.87;;;-1.80;99.90;-2.20;101284.00;;;;5000399;27;106247;-68
2022/01/21 03:20:59;;;;;;;1.13;0.60;;;-0.80;99.90;-2.20;101282.00;;;;4994386;28;110787;-69
2022/01/21 03:23:27;;;;;;;5.40;0.73;;;-1.80;99.90;-2.30;101289.00;;;;5014893;27;92885;-68
2022/01/21 03:25:53;;;;;;;1.73;0.53;;;-1.90;99.90;-2.30;101277.00;;;;5014050;27;94948;-68
2022/01/21 03:28:19;;;;;;;6.37;0.70;;;-1.80;99.90;-2.30;101291.00;;;;5012819;27;123507;-68
2022/01/21 03:30:45;;;;;;;1.13;0.50;;;-1.90;99.90;-2.30;101292.00;;;;5013559;27;108821;-68
2022/01/21 03:33:10;;;;;;;0.47;0.47;;;-1.90;99.90;-2.30;101282.00;;;;5013161;27;93264;-68
2022/01/21 03:35:36;;;;;;;5.20;1.00;;;-1.00;99.90;-2.30;101292.00;;;;5013838;27;122522;-68
2022/01/21 03:38:03;;;;;;;2.67;0.97;;;-1.90;99.90;-2.40;101284.00;;;;4999740;27;121386;-68
2022/01/21 03:40:29;;;;;;;0.87;0.60;;;-1.90;99.90;-2.40;101293.00;;;;4995004;28;95082;-67
2022/01/21 03:42:55;;;;;;;2.83;1.00;;;-2.10;99.90;-2.50;101286.00;;;;5006999;27;92241;-68
2022/01/21 03:45:20;;;;;;;0.43;0.40;;;-1.90;99.90;-2.50;101284.00;;;;5013208;27;123604;-67
2022/01/21 03:47:46;;;;;;;2.57;0.70;;;-2.10;99.90;-2.60;101281.00;;;;5000167;27;123666;-67
2022/01/21 03:50:22;;;;;;;2.03;1.13;;;-2.10;99.90;-2.60;101292.00;;;;4994431;27;93945;-67
2022/01/21 03:52:48;;;;;;;1.00;0.70;;;-2.20;99.90;-2.60;101298.00;;;;4994720;27;92840;-68
2022/01/21 03:55:14;;;;;;;1.37;0.73;;;-2.10;99.90;-2.60;101292.00;;;;4993668;28;93940;-68
2022/01/21 03:57:40;;;;;;;5.07;1.00;;;-2.10;99.90;-2.60;101288.00;;;;4992966;27;120985;-67
2022/01/21 04:00:10;;;;;;;0.40;0.40;;;-2.20;99.90;-2.60;101307.00;;;;4995108;28;92805;-67
2022/01/21 04:02:35;;;;;;;4.50;0.80;;;-2.30;99.90;-2.70;101305.00;;;;4975540;28;92725;-68
2022/01/21 04:05:01;;;;;;;1.50;0.70;;;-2.10;99.90;-2.70;101307.00;;;;4994659;28;93719;-68
2022/01/21 04:07:27;;;;;;;1.13;0.63;;;-2.30;99.90;-2.70;101314.00;;;;4993614;27;107569;-68
2022/01/21 04:09:53;;;;;;;0.60;0.60;;;-2.30;99.90;-2.80;101304.00;;;;4994836;27;109857;-67
2022/01/21 04:12:19;;;;;;;0.40;0.40;;;-2.30;99.90;-2.80;101315.00;;;;4993386;27;107997;-68
2022/01/21 04:14:45;;;;;;;2.50;0.87;;;-2.20;99.90;-2.80;101320.00;;;;4973849;28;94432;-68
2022/01/21 04:17:11;;;;;;;0.30;0.30;;;-2.30;99.90;-2.80;101319.00;;;;4979843;28;93753;-67
2022/01/21 04:19:38;;;;;;;0.93;0.53;;;-2.30;99.90;-2.80;101328.00;;;;4992844;27;109139;-68
2022/01/21 04:22:04;;;;;;;0.77;0.70;;;-2.40;99.90;-2.80;101320.00;;;;5006903;27;92699;-67
2022/01/21 04:24:30;;;;;;;4.40;1.13;;;-2.50;99.90;-2.90;101343.00;;;;5012277;27;110685;-67
2022/01/21 04:26:56;;;;;;;1.57;0.60;;;-2.40;99.90;-2.90;101339.00;;;;5013825;27;93001;-67
2022/01/21 04:29:22;;;;;;;1.00;0.60;;;-2.40;99.90;-2.90;101340.00;;;;5012918;27;110406;-67
2022/01/21 04:31:47;;;;;;;2.37;1.17;;;-2.40;99.90;-3.00;101341.00;;;;5013489;27;109251;-68
2022/01/21 04:34:13;;;;;;;3.60;0.80;;;-2.50;99.90;-3.00;101338.00;;;;4994146;27;123081;-66
2022/01/21 04:36:39;;;;;;;0.60;0.60;;;-1.80;99.90;-3.00;101342.00;;;;5009942;27;122989;-67
2022/01/21 04:39:07;;;;;;;2.00;0.97;;;-2.20;99.90;-3.00;101343.00;;;;5006191;27;93757;-67
2022/01/21 04:47:20;;;;;;;2.27;0.90;;;-2.60;99.90;-3.00;101333.00;;;;5009508;27;92858;-68
2022/01/21 04:49:47;;;;;;;1.27;0.70;;;-1.90;99.90;-3.00;101345.00;;;;5013628;27;92946;-66
2022/01/21 04:52:13;;;;;;;1.03;0.70;;;-2.60;99.90;-3.10;101341.00;;;;5011819;27;92861;-67
2022/01/21 04:54:38;;;;;;;2.27;1.00;;;-2.70;99.90;-3.10;101333.00;;;;5012560;27;93262;-67
2022/01/21 04:57:06;;;;;;;0.83;0.80;;;-2.60;99.90;-3.10;101335.00;;;;5014087;27;93560;-66
2022/01/21 04:59:33;;;;;;;0.47;0.47;;;-2.60;99.90;-3.10;101336.00;;;;5013013;27;92920;-66
2022/01/21 05:01:58;;;;;;;0.57;0.50;;;-2.70;99.90;-3.10;101347.00;;;;5013574;27;92491;-67
2022/01/21 05:04:25;;;;;;;0.80;0.60;;;-2.70;99.90;-3.10;101333.00;;;;5012252;27;118621;-67
2022/01/21 05:06:52;;;;;;;1.20;0.97;;;-2.70;99.90;-3.10;101361.00;;;;5010834;27;95610;-65
2022/01/21 05:09:19;;;;;;;2.03;1.20;;;-2.70;99.90;-3.20;101349.00;;;;4993286;27;92735;-66
2022/01/21 05:11:47;;;;;;;1.70;0.60;;;-2.70;99.90;-3.20;101355.00;;;;4988302;28;93003;-66
2022/01/21 05:14:23;;;;;;;0.50;0.50;;;-2.70;99.90;-3.20;101344.00;;;;4991720;28;93186;-67
2022/01/21 05:16:51;;;;;;;0.37;0.37;;;-2.80;99.90;-3.20;101359.00;;;;4992901;27;92985;-66
2022/01/21 05:19:19;;;;;;;2.77;1.07;;;-2.50;99.90;-3.20;101352.00;;;;4975012;28;92980;-67
2022/01/21 05:21:48;;;;;;;1.73;0.97;;;-2.80;99.90;-3.30;101355.00;;;;4996625;27;91959;-66
2022/01/21 05:24:16;;;;;;;1.70;0.93;;;-2.80;99.90;-3.30;101366.00;;;;4992758;28;93196;-67
2022/01/21 05:26:52;;;;;;;3.20;1.10;;;-2.10;99.90;-3.30;101370.00;;;;4992597;27;103428;-66
2022/01/21 05:29:21;;;;;;;3.43;1.10;;;-2.80;99.90;-3.40;101373.00;;;;4992354;27;94036;-66
2022/01/21 05:31:47;;;;;;;0.60;0.50;;;-1.70;99.90;-3.40;101369.00;;;;4993625;27;92979;-66
2022/01/21 05:34:12;;;;;;;1.40;0.77;;;-2.90;99.90;-3.40;101362.00;;;;5010239;27;107281;-66
2022/01/21 05:36:40;;;;;;;0.97;0.50;;;-3.30;99.90;-3.40;101349.00;;;;5008462;27;121700;-66
2022/01/21 05:39:08;;;;;;;1.87;0.90;;;-3.00;99.90;-3.40;101355.00;;;;5008004;27;93098;-67
2022/01/21 05:41:33;;;;;;;3.07;1.33;;;-3.10;99.90;-3.50;101351.00;;;;5007360;27;92817;-66
2022/01/21 05:44:08;;;;;;;0.67;0.60;;;-3.00;99.90;-3.40;101352.00;;;;5006782;27;121747;-67
2022/01/21 05:49:02;;;;;;;2.00;1.20;;;-3.00;99.90;-3.50;101344.00;;;;4990278;27;93241;-66
2022/01/21 05:51:28;;;;;;;4.80;0.83;;;-3.10;99.90;-3.50;101342.00;;;;5004369;27;93207;-67
2022/01/21 05:53:54;;;;;;;1.87;0.87;;;-3.00;99.90;-3.50;101349.00;;;;5002702;27;94046;-66
2022/01/21 05:56:24;;;;;;;1.67;0.87;;;-3.00;99.90;-3.40;101332.00;;;;5007418;27;123288;-66
2022/01/21 05:58:49;;;;;;;0.80;0.77;;;-3.00;99.90;-3.50;101341.00;;;;4993634;27;92905;-66
2022/01/21 06:01:15;;;;;;;1.33;1.20;;;-3.00;99.90;-3.50;101342.00;;;;5005360;27;92987;-67
2022/01/21 06:03:41;;;;;;;4.23;1.67;;;-3.10;99.90;-3.40;101336.00;;;;5002353;27;123109;-66
2022/01/21 06:06:09;;;;;;;1.63;1.00;;;-3.00;99.90;-3.50;101337.00;;;;5007832;27;121026;-66
2022/01/21 06:08:37;;;;;;;3.93;1.20;;;-3.00;99.90;-3.40;101342.00;;;;5007729;27;93066;-67
2022/01/21 06:11:03;;;;;;;3.03;1.20;;;-3.00;99.90;-3.40;101351.00;;;;5002990;27;92068;-66
2022/01/21 06:13:28;;;;;;;4.20;1.20;;;-3.00;99.90;-3.40;101357.00;;;;5004982;27;99703;-66
2022/01/21 06:15:56;;;;;;;1.30;1.20;;;-2.30;99.90;-3.50;101339.00;;;;4991784;28;93004;-66
2022/01/21 06:18:22;;;;;;;4.67;1.20;;;-3.00;99.90;-3.40;101343.00;;;;4995731;27;94671;-67
2022/01/21 06:20:48;;;;;;;2.13;1.47;;;-3.10;99.90;-3.50;101352.00;;;;5011697;27;95559;-66
2022/01/21 06:23:13;;;;;;;3.50;1.53;;;-3.00;99.90;-3.50;101347.00;;;;5011691;27;93699;-66
2022/01/21 06:25:39;;;;;;;0.83;0.63;;;-3.00;99.90;-3.50;101346.00;;;;5011072;27;93985;-66
2022/01/21 06:28:05;;;;;;;3.03;1.00;;;-3.00;99.90;-3.40;101346.00;;;;5009881;27;92722;-66
2022/01/21 06:30:31;;;;;;;1.67;1.03;;;-2.90;99.90;-3.50;101351.00;;;;4992087;28;93011;-66
2022/01/21 06:32:57;;;;;;;0.77;0.60;;;-3.00;99.90;-3.40;101352.00;;;;4996069;27;109894;-65
2022/01/21 06:35:23;;;;;;;5.27;1.20;;;-3.00;99.90;-3.40;101350.00;;;;4991334;28;109209;-66
2022/01/21 06:37:48;;;;;;;4.20;1.63;;;-2.90;99.90;-3.40;101351.00;;;;4992761;27;96604;-66
2022/01/21 06:40:15;;;;;;;4.93;1.33;;;-3.00;99.90;-3.40;101355.00;;;;4990854;28;109181;-65
2022/01/21 06:42:41;;;;;;;0.70;0.70;;;-3.00;99.90;-3.40;101348.00;;;;5004603;27;94304;-65
2022/01/21 06:45:08;;;;;;;2.03;1.07;;;-3.00;99.90;-3.40;101351.00;;;;5014273;27;122335;-66
2022/01/21 06:47:33;;;;;;;3.47;1.57;;;-2.90;99.90;-3.40;101356.00;;;;5003123;27;92975;-65
2022/01/21 06:49:59;;;;;;;2.40;1.07;;;-2.90;99.90;-3.40;101360.00;;;;4994708;28;109016;-65
2022/01/21 06:52:28;;;;;;;1.60;1.27;;;-2.90;99.90;-3.40;101358.00;;;;5002397;27;122449;-64
2022/01/21 06:54:54;;;;;;;2.13;1.10;;;-2.90;99.90;-3.40;101366.00;;;;5001161;27;92926;-66
2022/01/21 06:57:20;;;;;;;1.10;0.93;;;-3.00;99.90;-3.40;101356.00;;;;4996478;27;92955;-65
2022/01/21 06:59:45;;;;;;;4.47;1.37;;;-2.90;99.90;-3.30;101348.00;;;;4994971;27;94824;-65
2022/01/21 07:02:11;;;;;;;1.00;0.90;;;-3.00;99.90;-3.30;101352.00;;;;4994424;27;112457;-64
2022/01/21 07:04:37;;;;;;;1.23;1.03;;;-2.90;99.90;-3.30;101355.00;;;;4993847;28;107861;-65
2022/01/21 07:07:03;;;;;;;1.90;1.10;;;-2.90;99.90;-3.30;101341.00;;;;4993544;27;110579;-65
2022/01/21 07:09:28;;;;;;;2.53;1.43;;;-2.90;99.90;-3.30;101343.00;;;;4995056;28;92854;-65
2022/01/21 07:11:54;;;;;;;0.77;0.73;;;-2.80;99.90;-3.20;101334.00;;;;4994047;27;113964;-65
2022/01/21 07:14:21;;;;;;;3.03;1.73;;;-2.80;99.90;-3.20;101344.00;;;;4995461;27;123055;-65
2022/01/21 07:16:47;;;;;;;3.67;1.20;;;-2.80;99.90;-3.10;101337.00;;;;5013218;27;92761;-65
2022/01/21 07:19:13;;;;;;;0.83;0.83;;;-2.70;99.90;-3.10;101330.00;;;;5015523;27;93003;-65
2022/01/21 07:21:40;;;;;;;1.17;1.07;;;-2.70;99.90;-3.10;101327.00;;;;5012241;27;94208;-65
2022/01/21 07:24:06;;;;;;;1.27;1.17;;;-2.70;99.90;-2.90;101334.00;;;;4995039;28;93960;-65
2022/01/21 07:26:32;;;;;;;1.40;0.90;;;-2.60;99.90;-2.80;101325.00;;;;4996420;27;93566;-66
2022/01/21 07:28:57;;;;;;;5.47;1.80;;;-2.40;99.90;-2.60;101317.00;;;;5006349;27;108722;-65
2022/01/21 07:31:23;;;;;;;7.57;1.60;;;-2.30;99.90;-2.40;101326.00;;;;4993995;27;93792;-64
2022/01/21 07:33:49;;;;;;;2.03;1.33;;;-2.20;99.90;-2.30;101333.00;;;;5014833;27;94584;-65
2022/01/21 07:36:15;;;;;;;1.30;1.17;;;-1.90;99.90;-2.10;101345.00;;;;5013901;27;109604;-64
2022/01/21 07:38:41;;;;;;;3.10;1.50;;;-1.70;99.90;-1.90;101327.00;;;;5013857;27;93144;-65
2022/01/21 07:41:07;;;;;;;2.67;1.23;;;-1.60;99.90;-1.80;101340.00;;;;5012214;27;95067;-63
2022/01/21 07:43:33;;;;;;;1.87;1.60;;;-1.50;99.90;-1.70;101331.00;;;;5014492;27;93700;-64
2022/01/21 07:45:59;;;;;;;5.10;1.57;;;-1.30;99.90;-1.50;101340.00;;;;5014530;27;110440;-65
2022/01/21 07:48:25;;;;;;;2.17;1.10;;;-1.20;99.90;-1.40;101355.00;;;;5014200;27;92066;-64
2022/01/21 07:50:50;;;;;;;2.57;1.30;;;-0.70;99.90;-1.30;101350.00;;;;5011837;27;122490;-64
2022/01/21 07:53:16;;;;;;;3.40;1.63;;;-1.00;99.90;-1.10;101340.00;;;;5011876;27;123295;-63
2022/01/21 07:55:44;;;;;;;1.87;1.33;;;-0.80;99.90;-1.00;101345.00;;;;5014499;27;94180;-64
2022/01/21 07:58:11;;;;;;;5.17;1.87;;;-0.70;99.90;-0.90;101349.00;;;;4989770;28;92838;-63
2022/01/21 08:00:38;;;;;;;7.57;1.93;;;-0.60;99.90;-0.80;101345.00;;;;4994019;27;97110;-64
2022/01/21 08:03:04;;;;;;;1.50;1.33;;;-0.50;99.90;-0.70;101359.00;;;;4994197;28;92749;-63
2022/01/21 08:05:33;;;;;;;1.97;1.03;;;-0.40;99.90;-0.60;101356.00;;;;4976250;28;92804;-63
2022/01/21 08:08:00;;;;;;;6.13;1.37;;;-0.20;99.90;-0.50;101356.00;;;;4994468;28;92847;-63
2022/01/21 08:10:26;;;;;;;2.30;1.03;;;-0.20;99.90;-0.30;101361.00;;;;4975677;28;93500;-65
2022/01/21 08:12:52;;;;;;;4.43;1.37;;;-0.10;99.90;-0.20;101361.00;;;;4994644;27;111367;-64
2022/01/21 08:15:18;;;;;;;3.50;1.27;;;0.10;99.90;-0.10;101362.00;;;;4993976;27;92818;-65
2022/01/21 08:17:44;;;;;;;2.80;1.17;;;0.20;99.90;0.00;101355.00;;;;4995725;27;93835;-66
2022/01/21 08:20:10;;;;;;;4.90;1.50;;;0.30;99.90;0.10;101375.00;;;;5013432;27;113373;-66
2022/01/21 08:22:37;;;;;;;1.20;0.43;;;0.70;99.90;0.20;101371.00;;;;5013574;27;94446;-67
2022/01/21 08:25:04;;;;;;;3.83;1.10;;;0.70;99.90;0.30;101371.00;;;;5014882;27;92953;-67
2022/01/21 08:27:29;;;;;;;4.33;1.60;;;0.70;99.90;0.50;101371.00;;;;5012835;27;92710;-66
2022/01/21 08:29:56;;;;;;;2.90;1.23;;;0.70;99.90;0.50;101377.00;;;;5012710;27;122683;-66
2022/01/21 08:32:22;;;;;;;2.30;0.90;;;0.80;99.90;0.60;101385.00;;;;5013224;27;93020;-66
2022/01/21 08:34:49;;;;;;;5.47;2.00;;;0.90;99.90;0.60;101388.00;;;;5013513;27;92943;-66
2022/01/21 08:37:16;;;;;;;1.53;1.40;;;0.90;99.90;0.80;101376.00;;;;5016732;27;92011;-66
2022/01/21 08:39:43;;;;;;;5.50;1.53;;;1.00;99.90;0.90;101380.00;;;;5013513;27;93981;-66
2022/01/21 08:42:10;;;;;;;2.90;1.10;;;1.10;99.90;0.90;101388.00;;;;5006719;27;93778;-65
2022/01/21 08:44:36;;;;;;;4.80;1.27;;;1.20;99.90;1.00;101376.00;;;;4993890;28;93938;-66
2022/01/21 08:47:03;;;;;;;2.43;1.50;;;1.90;99.90;1.00;101388.00;;;;5004980;27;92897;-65
2022/01/21 08:49:29;;;;;;;4.13;1.20;;;1.40;99.90;1.10;101396.00;;;;5014004;27;94128;-65
2022/01/21 08:51:57;;;;;;;5.20;1.20;;;1.40;99.90;1.20;101391.00;;;;5012424;27;122540;-65
2022/01/21 08:54:24;;;;;;;3.30;1.90;;;1.50;99.90;1.30;101394.00;;;;5013724;27;92817;-66
2022/01/21 08:56:52;;;;;;;3.50;1.53;;;1.60;99.90;1.40;101387.00;;;;5011662;27;93014;-66
2022/01/21 08:59:18;;;;;;;1.87;0.80;;;1.70;99.90;1.50;101404.00;;;;5012254;27;111205;-66
2022/01/21 09:01:46;;;;;;;3.03;1.27;;;1.80;99.90;1.60;101398.00;;;;5013107;27;93587;-66
2022/01/21 09:04:12;;;;;;;10.77;1.70;;;1.80;99.90;1.60;101398.00;;;;5012979;27;92690;-67
2022/01/21 09:06:38;;;;;;;2.83;1.27;;;2.00;99.90;1.70;101400.00;;;;5011993;27;92760;-66
2022/01/21 09:09:04;;;;;;;2.80;1.43;;;2.00;99.90;1.80;101400.00;;;;4979192;28;122697;-65
2022/01/21 09:11:30;;;;;;;3.90;1.03;;;2.00;99.90;1.70;101398.00;;;;4994897;27;93176;-65
2022/01/21 09:13:57;;;;;;;5.23;1.30;;;2.60;99.90;1.50;101398.00;;;;5010340;27;105959;-66
2022/01/21 09:16:24;;;;;;;2.13;1.40;;;1.90;99.90;1.30;101398.00;;;;4992371;27;92744;-65
2022/01/21 09:18:53;;;;;;;2.77;1.50;;;1.80;99.90;1.20;101392.00;;;;5009257;27;93200;-66
2022/01/21 09:21:23;;;;;;;4.30;1.80;;;1.50;99.90;1.10;101403.00;;;;5012652;27;92806;-66
2022/01/21 09:23:50;;;;;;;2.60;1.20;;;1.50;99.90;1.00;101398.00;;;;4997581;27;93241;-65
2022/01/21 09:26:18;;;;;;;4.40;1.63;;;1.30;99.90;0.90;101395.00;;;;4993816;28;92015;-65
2022/01/21 09:28:45;;;;;;;5.80;1.77;;;1.20;99.90;0.80;101400.00;;;;4993834;27;94065;-65
2022/01/21 09:31:11;;;;;;;3.80;1.73;;;1.20;99.90;0.70;101405.00;;;;5012026;27;123106;-64
2022/01/21 09:33:38;;;;;;;3.73;1.83;;;1.10;99.90;0.70;101391.00;;;;4996997;27;93660;-65
2022/01/21 09:36:04;;;;;;;1.70;1.23;;;2.10;99.90;0.70;101399.00;;;;4993969;28;93122;-66
2022/01/21 09:38:31;;;;;;;10.57;1.67;;;1.10;99.90;0.60;101403.00;;;;4973721;28;108377;-65
2022/01/21 09:40:57;;;;;;;2.37;1.47;;;1.00;99.90;0.60;101410.00;;;;4992754;27;122954;-66
2022/01/21 09:43:23;;;;;;;2.20;1.57;;;1.00;99.90;0.60;101408.00;;;;5006418;27;94299;-65
2022/01/21 09:45:54;;;;;;;5.53;1.43;;;0.90;99.90;0.70;101420.00;;;;5013891;27;92941;-66
2022/01/21 09:48:28;;;;;;;3.33;1.43;;;1.30;99.90;0.60;101406.00;;;;5012059;27;94016;-65
2022/01/21 09:50:59;;;;;;;3.83;1.80;;;1.60;99.90;0.70;101414.00;;;;5013476;27;93307;-65
2022/01/21 09:53:32;;;;;;;2.50;1.37;;;1.70;99.90;0.70;101402.00;;;;5012306;27;93148;-64
2022/01/21 09:56:01;;;;;;;4.70;2.40;;;2.00;99.90;0.70;101405.00;;;;5013472;27;92721;-69
2022/01/21 09:58:29;;;;;;;4.30;1.77;;;1.00;99.90;0.80;101407.00;;;;5010569;27;94194;-65
2022/01/21 10:01:01;;;;;;;3.30;1.50;;;1.10;99.90;0.90;101407.00;;;;5011834;27;107239;-66
2022/01/21 10:03:27;;;;;;;2.50;1.53;;;1.10;99.90;1.00;101402.00;;;;5012538;27;92806;-66
2022/01/21 10:05:54;;;;;;;7.30;1.77;;;1.20;99.90;1.00;101388.00;;;;4995141;27;102436;-67
2022/01/21 10:08:23;;;;;;;4.37;1.70;;;1.30;99.90;1.00;101394.00;;;;4972564;28;94698;-66
2022/01/21 10:10:49;;;;;;;5.93;2.30;;;1.30;99.90;1.00;101400.00;;;;4992321;27;93572;-66
2022/01/21 10:13:18;;;;;;;3.63;1.67;;;1.30;99.90;1.10;101395.00;;;;4992128;28;94882;-66
2022/01/21 10:15:45;;;;;;;5.90;2.00;;;1.70;99.90;1.20;101393.00;;;;4992800;28;92245;-66
2022/01/21 10:18:22;;;;;;;1.93;1.30;;;1.50;99.90;1.50;101395.00;;;;5005809;27;110266;-67
2022/01/21 10:21:11;;;;;;;7.07;1.77;;;1.50;99.90;1.90;101400.00;;;;5012221;27;92819;-67
2022/01/21 10:23:43;;;;;;;5.40;1.63;;;2.00;99.90;2.10;101383.00;;;;4989082;28;94165;-68
2022/01/21 10:26:15;;;;;;;6.70;1.47;;;3.10;99.90;2.10;101380.00;;;;4992369;28;92730;-66
2022/01/21 10:28:44;;;;;;;3.03;1.53;;;2.60;99.90;2.00;101399.00;;;;4991639;27;93569;-67
2022/01/21 10:31:18;;;;;;;4.80;2.20;;;2.30;99.90;1.90;101392.00;;;;4991570;27;102125;-67
2022/01/21 10:33:49;;;;;;;2.83;1.57;;;2.30;99.90;1.80;101400.00;;;;4992024;28;96957;-66
2022/01/21 10:36:27;;;;;;;5.53;1.80;;;2.20;99.90;1.80;101407.00;;;;4992950;28;93014;-67
2022/01/21 10:39:18;;;;;;;3.83;1.50;;;3.00;99.90;1.70;101406.00;;;;4985059;28;92971;-65
2022/01/21 10:41:47;;;;;;;2.57;1.90;;;2.00;99.90;1.70;101400.00;;;;4995698;27;92233;-67
2022/01/21 10:44:19;;;;;;;6.17;2.10;;;2.70;99.90;1.60;101419.00;;;;5011471;27;92727;-66
2022/01/21 10:47:07;;;;;;;7.23;1.20;;;1.90;99.90;1.50;101398.00;;;;4989695;28;92752;-67
2022/01/21 10:49:39;;;;;;;2.67;2.13;;;1.90;99.90;1.50;101403.00;;;;4979915;27;93829;-66
2022/01/21 10:52:09;;;;;;;4.80;2.10;;;2.70;99.90;1.50;101401.00;;;;4992894;27;94827;-68
2022/01/21 10:54:45;;;;;;;2.00;1.73;;;1.90;99.90;1.80;101411.00;;;;5012424;27;92825;-68
2022/01/21 10:57:30;;;;;;;4.27;1.67;;;1.90;99.90;2.20;101411.00;;;;5010921;27;93921;-69
2022/01/21 11:00:09;;;;;;;9.73;2.23;;;2.30;99.90;2.60;101415.00;;;;5011796;27;94315;-69
2022/01/21 11:02:49;;;;;;;3.77;2.40;;;2.60;99.90;2.70;101412.00;;;;5010872;27;94239;-71
2022/01/21 11:05:21;;;;;;;3.77;1.50;;;3.10;99.90;3.00;101422.00;;;;5002173;27;93155;-70
2022/01/21 11:08:08;;;;;;;6.57;1.93;;;3.20;99.90;3.00;101411.00;;;;5006076;27;92033;-70
2022/01/21 11:10:35;;;;;;;2.40;1.43;;;3.20;99.90;3.10;101419.00;;;;5011808;27;93013;-71
2022/01/21 11:13:23;;;;;;;2.83;1.70;;;3.20;99.90;3.30;101407.00;;;;5011059;27;92862;-72
2022/01/21 11:16:10;;;;;;;2.53;1.77;;;3.40;99.90;3.60;101419.00;;;;5010856;27;93839;-71
2022/01/21 11:18:57;;;;;;;4.73;1.73;;;3.80;99.90;3.80;101410.00;;;;4974577;28;92988;-69
2022/01/21 11:21:45;;;;;;;3.43;1.90;;;4.00;99.90;3.90;101423.00;;;;4973554;27;93091;-69
2022/01/21 11:24:12;;;;;;;5.80;2.40;;;4.10;99.90;4.00;101407.00;;;;5009254;27;92908;-70
2022/01/21 11:26:38;;;;;;;7.60;2.00;;;4.70;99.90;4.00;101409.00;;;;5011721;27;92846;-70
2022/01/21 11:29:06;;;;;;;4.50;1.27;;;4.20;99.90;4.00;101408.00;;;;5012966;27;93082;-70
2022/01/21 11:31:32;;;;;;;8.13;1.70;;;4.30;99.90;4.00;101403.00;;;;4994884;27;92799;-70
2022/01/21 11:33:57;;;;;;;4.47;1.30;;;4.20;99.90;3.90;101410.00;;;;4994848;28;93723;-71
2022/01/21 11:36:25;;;;;;;5.80;1.87;;;4.20;99.70;3.80;101399.00;;;;5012759;27;92873;-69
2022/01/21 11:38:55;;;;;;;11.77;1.93;;;4.10;99.90;3.90;101391.00;;;;5014069;27;92520;-68
2022/01/21 11:41:24;;;;;;;2.40;1.07;;;4.10;99.20;3.90;101386.00;;;;4995449;27;93860;-69
2022/01/21 11:43:53;;;;;;;6.33;1.87;;;4.70;99.00;4.00;101379.00;;;;5014395;27;94321;-68